sensor_id;sensor_type;location;lat;lon;timestamp;P1;durP1;ratioP1;P2;durP2;ratioP2
52918;SDS011;38793;52.690;6.812;2023-08-17T00:01:39;7.90;;;2.22;;
52918;SDS011;38793;52.690;6.812;2023-08-17T00:04:04;6.18;;;2.17;;
52918;SDS011;38793;52.690;6.812;2023-08-17T00:06:30;4.45;;;2.50;;
52918;SDS011;38793;52.690;6.812;2023-08-17T00:08:56;6.53;;;2.08;;
52918;SDS011;38793;52.690;6.812;2023-08-17T00:11:21;3.60;;;1.95;;
52918;SDS011;38793;52.690;6.812;2023-08-17T00:13:47;5.35;;;2.25;;
52918;SDS011;38793;52.690;6.812;2023-08-17T00:16:12;3.33;;;1.25;;
52918;SDS011;38793;52.690;6.812;2023-08-17T00:18:38;7.10;;;1.80;;
52918;SDS011;38793;52.690;6.812;2023-08-17T00:21:04;4.30;;;1.67;;
52918;SDS011;38793;52.690;6.812;2023-08-17T00:23:29;4.00;;;1.20;;
52918;SDS011;38793;52.690;6.812;2023-08-17T00:25:55;4.30;;;1.33;;
52918;SDS011;38793;52.690;6.812;2023-08-17T00:28:20;7.78;;;1.65;;
52918;SDS011;38793;52.690;6.812;2023-08-17T00:30:46;7.80;;;1.73;;
52918;SDS011;38793;52.690;6.812;2023-08-17T00:33:12;3.80;;;1.40;;
52918;SDS011;38793;52.690;6.812;2023-08-17T00:35:37;4.65;;;1.70;;
52918;SDS011;38793;52.690;6.812;2023-08-17T00:38:03;6.85;;;1.55;;
52918;SDS011;38793;52.690;6.812;2023-08-17T00:40:28;7.97;;;1.92;;
52918;SDS011;38793;52.690;6.812;2023-08-17T00:42:54;4.90;;;1.38;;
52918;SDS011;38793;52.690;6.812;2023-08-17T00:45:21;5.40;;;1.92;;
52918;SDS011;38793;52.690;6.812;2023-08-17T00:47:47;8.52;;;1.77;;
52918;SDS011;38793;52.690;6.812;2023-08-17T00:50:13;7.53;;;2.42;;
52918;SDS011;38793;52.690;6.812;2023-08-17T00:52:40;8.23;;;1.50;;
52918;SDS011;38793;52.690;6.812;2023-08-17T00:55:07;5.35;;;1.05;;
52918;SDS011;38793;52.690;6.812;2023-08-17T00:57:34;4.50;;;1.95;;
52918;SDS011;38793;52.690;6.812;2023-08-17T01:02:26;3.08;;;1.52;;
52918;SDS011;38793;52.690;6.812;2023-08-17T01:04:52;7.43;;;1.55;;
52918;SDS011;38793;52.690;6.812;2023-08-17T01:07:18;11.35;;;1.77;;
52918;SDS011;38793;52.690;6.812;2023-08-17T01:09:44;9.00;;;2.10;;
52918;SDS011;38793;52.690;6.812;2023-08-17T01:15:12;5.47;;;1.63;;
52918;SDS011;38793;52.690;6.812;2023-08-17T01:17:43;6.32;;;1.55;;
52918;SDS011;38793;52.690;6.812;2023-08-17T01:20:17;4.40;;;1.42;;
52918;SDS011;38793;52.690;6.812;2023-08-17T01:22:45;5.90;;;1.38;;
52918;SDS011;38793;52.690;6.812;2023-08-17T01:25:13;6.22;;;1.65;;
52918;SDS011;38793;52.690;6.812;2023-08-17T01:27:45;5.30;;;1.70;;
52918;SDS011;38793;52.690;6.812;2023-08-17T01:30:11;4.65;;;1.67;;
52918;SDS011;38793;52.690;6.812;2023-08-17T01:32:53;6.03;;;1.42;;
52918;SDS011;38793;52.690;6.812;2023-08-17T01:35:37;5.70;;;2.17;;
52918;SDS011;38793;52.690;6.812;2023-08-17T01:38:13;7.70;;;1.85;;
52918;SDS011;38793;52.690;6.812;2023-08-17T01:40:42;3.88;;;1.98;;
52918;SDS011;38793;52.690;6.812;2023-08-17T01:43:09;5.00;;;1.25;;
52918;SDS011;38793;52.690;6.812;2023-08-17T01:45:36;4.50;;;1.05;;
52918;SDS011;38793;52.690;6.812;2023-08-17T01:48:02;4.32;;;1.52;;
52918;SDS011;38793;52.690;6.812;2023-08-17T01:50:27;4.22;;;1.45;;
52918;SDS011;38793;52.690;6.812;2023-08-17T01:52:53;4.22;;;1.42;;
52918;SDS011;38793;52.690;6.812;2023-08-17T01:55:20;3.72;;;1.40;;
52918;SDS011;38793;52.690;6.812;2023-08-17T01:57:48;6.47;;;1.25;;
52918;SDS011;38793;52.690;6.812;2023-08-17T02:00:14;4.63;;;1.00;;
52918;SDS011;38793;52.690;6.812;2023-08-17T02:05:05;7.40;;;1.33;;
52918;SDS011;38793;52.690;6.812;2023-08-17T02:07:32;6.47;;;1.63;;
52918;SDS011;38793;52.690;6.812;2023-08-17T02:09:57;8.45;;;2.05;;
52918;SDS011;38793;52.690;6.812;2023-08-17T02:12:24;8.32;;;2.00;;
52918;SDS011;38793;52.690;6.812;2023-08-17T02:14:49;4.28;;;1.52;;
52918;SDS011;38793;52.690;6.812;2023-08-17T02:17:15;5.68;;;1.45;;
52918;SDS011;38793;52.690;6.812;2023-08-17T02:19:44;6.63;;;1.63;;
52918;SDS011;38793;52.690;6.812;2023-08-17T02:22:10;5.97;;;1.30;;
52918;SDS011;38793;52.690;6.812;2023-08-17T02:24:35;5.50;;;1.25;;
52918;SDS011;38793;52.690;6.812;2023-08-17T02:27:01;3.22;;;1.30;;
52918;SDS011;38793;52.690;6.812;2023-08-17T02:29:27;4.03;;;1.23;;
52918;SDS011;38793;52.690;6.812;2023-08-17T02:31:53;5.15;;;1.20;;
52918;SDS011;38793;52.690;6.812;2023-08-17T02:34:18;5.38;;;1.17;;
52918;SDS011;38793;52.690;6.812;2023-08-17T02:36:44;4.22;;;1.25;;
52918;SDS011;38793;52.690;6.812;2023-08-17T02:39:09;7.82;;;1.45;;
52918;SDS011;38793;52.690;6.812;2023-08-17T02:41:35;5.68;;;1.42;;
52918;SDS011;38793;52.690;6.812;2023-08-17T02:44:01;3.95;;;1.20;;
52918;SDS011;38793;52.690;6.812;2023-08-17T02:46:27;4.38;;;1.15;;
52918;SDS011;38793;52.690;6.812;2023-08-17T02:48:53;5.20;;;1.10;;
52918;SDS011;38793;52.690;6.812;2023-08-17T02:51:18;2.65;;;1.40;;
52918;SDS011;38793;52.690;6.812;2023-08-17T02:53:44;3.95;;;1.60;;
52918;SDS011;38793;52.690;6.812;2023-08-17T02:56:10;9.77;;;1.23;;
52918;SDS011;38793;52.690;6.812;2023-08-17T02:58:37;4.97;;;1.33;;
52918;SDS011;38793;52.690;6.812;2023-08-17T03:01:09;7.50;;;1.35;;
52918;SDS011;38793;52.690;6.812;2023-08-17T03:03:35;6.43;;;0.95;;
52918;SDS011;38793;52.690;6.812;2023-08-17T03:06:01;6.18;;;1.23;;
52918;SDS011;38793;52.690;6.812;2023-08-17T03:08:27;4.05;;;1.05;;
52918;SDS011;38793;52.690;6.812;2023-08-17T03:10:53;5.00;;;1.20;;
52918;SDS011;38793;52.690;6.812;2023-08-17T03:13:19;9.00;;;1.35;;
52918;SDS011;38793;52.690;6.812;2023-08-17T03:15:44;4.25;;;1.20;;
52918;SDS011;38793;52.690;6.812;2023-08-17T03:18:10;4.47;;;1.38;;
52918;SDS011;38793;52.690;6.812;2023-08-17T03:20:36;3.63;;;1.52;;
52918;SDS011;38793;52.690;6.812;2023-08-17T03:23:01;5.07;;;1.17;;
52918;SDS011;38793;52.690;6.812;2023-08-17T03:25:31;6.22;;;1.50;;
52918;SDS011;38793;52.690;6.812;2023-08-17T03:27:56;5.20;;;0.73;;
52918;SDS011;38793;52.690;6.812;2023-08-17T03:30:22;4.97;;;1.10;;
52918;SDS011;38793;52.690;6.812;2023-08-17T03:32:47;5.93;;;1.13;;
52918;SDS011;38793;52.690;6.812;2023-08-17T03:35:13;4.15;;;1.25;;
52918;SDS011;38793;52.690;6.812;2023-08-17T03:37:39;3.97;;;1.00;;
52918;SDS011;38793;52.690;6.812;2023-08-17T03:40:04;2.42;;;1.20;;
52918;SDS011;38793;52.690;6.812;2023-08-17T03:42:31;3.05;;;1.10;;
52918;SDS011;38793;52.690;6.812;2023-08-17T03:44:56;3.08;;;1.23;;
52918;SDS011;38793;52.690;6.812;2023-08-17T03:47:22;3.28;;;1.08;;
52918;SDS011;38793;52.690;6.812;2023-08-17T03:49:47;5.70;;;1.58;;
52918;SDS011;38793;52.690;6.812;2023-08-17T03:52:13;4.15;;;1.40;;
52918;SDS011;38793;52.690;6.812;2023-08-17T03:54:39;5.13;;;1.80;;
52918;SDS011;38793;52.690;6.812;2023-08-17T03:57:04;3.97;;;1.40;;
52918;SDS011;38793;52.690;6.812;2023-08-17T03:59:30;3.72;;;0.98;;
52918;SDS011;38793;52.690;6.812;2023-08-17T04:01:55;3.15;;;1.13;;
52918;SDS011;38793;52.690;6.812;2023-08-17T04:04:21;8.63;;;1.88;;
52918;SDS011;38793;52.690;6.812;2023-08-17T04:06:47;3.67;;;1.13;;
52918;SDS011;38793;52.690;6.812;2023-08-17T04:09:12;5.07;;;1.20;;
52918;SDS011;38793;52.690;6.812;2023-08-17T04:11:38;5.22;;;1.83;;
52918;SDS011;38793;52.690;6.812;2023-08-17T04:14:03;7.13;;;1.75;;
52918;SDS011;38793;52.690;6.812;2023-08-17T04:16:29;8.57;;;2.08;;
52918;SDS011;38793;52.690;6.812;2023-08-17T04:18:55;8.25;;;2.00;;
52918;SDS011;38793;52.690;6.812;2023-08-17T04:21:21;3.95;;;1.73;;
52918;SDS011;38793;52.690;6.812;2023-08-17T04:23:46;7.00;;;2.50;;
52918;SDS011;38793;52.690;6.812;2023-08-17T04:26:12;4.32;;;2.10;;
52918;SDS011;38793;52.690;6.812;2023-08-17T04:28:38;4.50;;;1.73;;
52918;SDS011;38793;52.690;6.812;2023-08-17T04:31:03;4.93;;;2.05;;
52918;SDS011;38793;52.690;6.812;2023-08-17T04:33:29;6.18;;;2.10;;
52918;SDS011;38793;52.690;6.812;2023-08-17T04:35:55;5.30;;;1.88;;
52918;SDS011;38793;52.690;6.812;2023-08-17T04:38:20;7.47;;;1.45;;
52918;SDS011;38793;52.690;6.812;2023-08-17T04:40:46;4.65;;;2.00;;
52918;SDS011;38793;52.690;6.812;2023-08-17T04:43:12;7.85;;;2.00;;
52918;SDS011;38793;52.690;6.812;2023-08-17T04:45:38;5.63;;;2.28;;
52918;SDS011;38793;52.690;6.812;2023-08-17T04:48:04;7.95;;;1.92;;
52918;SDS011;38793;52.690;6.812;2023-08-17T04:50:30;5.78;;;2.30;;
52918;SDS011;38793;52.690;6.812;2023-08-17T04:52:56;3.72;;;2.10;;
52918;SDS011;38793;52.690;6.812;2023-08-17T04:55:22;3.90;;;1.95;;
52918;SDS011;38793;52.690;6.812;2023-08-17T04:57:48;7.97;;;1.67;;
52918;SDS011;38793;52.690;6.812;2023-08-17T05:00:15;7.72;;;2.25;;
52918;SDS011;38793;52.690;6.812;2023-08-17T05:02:41;4.38;;;1.95;;
52918;SDS011;38793;52.690;6.812;2023-08-17T05:05:09;6.28;;;2.28;;
52918;SDS011;38793;52.690;6.812;2023-08-17T05:07:35;6.03;;;1.60;;
52918;SDS011;38793;52.690;6.812;2023-08-17T05:10:01;5.28;;;1.88;;
52918;SDS011;38793;52.690;6.812;2023-08-17T05:12:27;5.15;;;1.50;;
52918;SDS011;38793;52.690;6.812;2023-08-17T05:14:52;10.98;;;2.00;;
52918;SDS011;38793;52.690;6.812;2023-08-17T05:17:18;6.13;;;2.03;;
52918;SDS011;38793;52.690;6.812;2023-08-17T05:19:44;5.72;;;1.67;;
52918;SDS011;38793;52.690;6.812;2023-08-17T05:22:10;5.47;;;1.92;;
52918;SDS011;38793;52.690;6.812;2023-08-17T05:24:37;9.57;;;2.50;;
52918;SDS011;38793;52.690;6.812;2023-08-17T05:27:03;6.40;;;1.85;;
52918;SDS011;38793;52.690;6.812;2023-08-17T05:29:29;6.15;;;1.63;;
52918;SDS011;38793;52.690;6.812;2023-08-17T05:31:57;6.18;;;1.75;;
52918;SDS011;38793;52.690;6.812;2023-08-17T05:34:23;4.57;;;1.73;;
52918;SDS011;38793;52.690;6.812;2023-08-17T05:36:48;4.93;;;1.38;;
52918;SDS011;38793;52.690;6.812;2023-08-17T05:39:14;8.73;;;1.70;;
52918;SDS011;38793;52.690;6.812;2023-08-17T05:41:39;5.40;;;2.20;;
52918;SDS011;38793;52.690;6.812;2023-08-17T05:44:05;5.10;;;2.15;;
52918;SDS011;38793;52.690;6.812;2023-08-17T05:46:32;9.77;;;1.83;;
52918;SDS011;38793;52.690;6.812;2023-08-17T05:48:58;9.57;;;2.03;;
52918;SDS011;38793;52.690;6.812;2023-08-17T05:51:24;7.72;;;1.80;;
52918;SDS011;38793;52.690;6.812;2023-08-17T05:56:15;7.05;;;1.90;;
52918;SDS011;38793;52.690;6.812;2023-08-17T05:58:41;5.43;;;1.35;;
52918;SDS011;38793;52.690;6.812;2023-08-17T06:01:07;6.05;;;1.67;;
52918;SDS011;38793;52.690;6.812;2023-08-17T06:03:34;3.30;;;1.20;;
52918;SDS011;38793;52.690;6.812;2023-08-17T06:06:00;7.68;;;2.00;;
52918;SDS011;38793;52.690;6.812;2023-08-17T06:08:26;6.70;;;1.67;;
52918;SDS011;38793;52.690;6.812;2023-08-17T06:10:51;3.28;;;1.38;;
52918;SDS011;38793;52.690;6.812;2023-08-17T06:13:17;7.70;;;1.20;;
52918;SDS011;38793;52.690;6.812;2023-08-17T06:15:42;2.70;;;1.10;;
52918;SDS011;38793;52.690;6.812;2023-08-17T06:18:08;5.53;;;1.27;;
52918;SDS011;38793;52.690;6.812;2023-08-17T06:20:34;6.05;;;1.30;;
52918;SDS011;38793;52.690;6.812;2023-08-17T06:22:59;6.15;;;1.40;;
52918;SDS011;38793;52.690;6.812;2023-08-17T06:25:25;4.90;;;1.30;;
52918;SDS011;38793;52.690;6.812;2023-08-17T06:27:51;5.25;;;1.50;;
52918;SDS011;38793;52.690;6.812;2023-08-17T06:30:16;2.15;;;1.05;;
52918;SDS011;38793;52.690;6.812;2023-08-17T06:32:42;7.32;;;1.20;;
52918;SDS011;38793;52.690;6.812;2023-08-17T06:35:08;7.05;;;0.95;;
52918;SDS011;38793;52.690;6.812;2023-08-17T06:37:34;3.83;;;0.70;;
52918;SDS011;38793;52.690;6.812;2023-08-17T06:39:59;7.22;;;1.00;;
52918;SDS011;38793;52.690;6.812;2023-08-17T06:42:25;4.53;;;1.23;;
52918;SDS011;38793;52.690;6.812;2023-08-17T06:44:51;4.75;;;1.25;;
52918;SDS011;38793;52.690;6.812;2023-08-17T06:47:16;4.80;;;0.90;;
52918;SDS011;38793;52.690;6.812;2023-08-17T06:49:42;4.85;;;1.35;;
52918;SDS011;38793;52.690;6.812;2023-08-17T06:52:08;4.22;;;0.88;;
52918;SDS011;38793;52.690;6.812;2023-08-17T06:54:33;4.68;;;0.77;;
52918;SDS011;38793;52.690;6.812;2023-08-17T06:56:59;3.85;;;1.02;;
52918;SDS011;38793;52.690;6.812;2023-08-17T06:59:24;5.22;;;0.90;;
52918;SDS011;38793;52.690;6.812;2023-08-17T07:01:50;4.22;;;0.80;;
52918;SDS011;38793;52.690;6.812;2023-08-17T07:04:15;7.70;;;1.17;;
52918;SDS011;38793;52.690;6.812;2023-08-17T07:06:41;4.88;;;0.90;;
52918;SDS011;38793;52.690;6.812;2023-08-17T07:09:08;5.03;;;0.90;;
52918;SDS011;38793;52.690;6.812;2023-08-17T07:11:37;10.68;;;1.40;;
52918;SDS011;38793;52.690;6.812;2023-08-17T07:14:03;4.65;;;0.77;;
52918;SDS011;38793;52.690;6.812;2023-08-17T07:16:28;6.43;;;0.75;;
52918;SDS011;38793;52.690;6.812;2023-08-17T07:18:54;89.32;;;6.10;;
52918;SDS011;38793;52.690;6.812;2023-08-17T07:21:19;4.80;;;0.63;;
52918;SDS011;38793;52.690;6.812;2023-08-17T07:23:45;5.47;;;0.55;;
52918;SDS011;38793;52.690;6.812;2023-08-17T07:26:12;6.05;;;1.15;;
52918;SDS011;38793;52.690;6.812;2023-08-17T07:28:37;8.43;;;1.55;;
52918;SDS011;38793;52.690;6.812;2023-08-17T07:31:03;5.65;;;1.08;;
52918;SDS011;38793;52.690;6.812;2023-08-17T07:33:31;13.18;;;1.10;;
52918;SDS011;38793;52.690;6.812;2023-08-17T07:35:56;4.13;;;0.80;;
52918;SDS011;38793;52.690;6.812;2023-08-17T07:38:23;3.97;;;0.82;;
52918;SDS011;38793;52.690;6.812;2023-08-17T07:40:49;3.30;;;0.70;;
52918;SDS011;38793;52.690;6.812;2023-08-17T07:43:14;3.60;;;0.45;;
52918;SDS011;38793;52.690;6.812;2023-08-17T07:45:40;4.70;;;0.70;;
52918;SDS011;38793;52.690;6.812;2023-08-17T07:48:06;6.75;;;1.35;;
52918;SDS011;38793;52.690;6.812;2023-08-17T07:50:31;6.00;;;0.98;;
52918;SDS011;38793;52.690;6.812;2023-08-17T07:52:57;1.75;;;0.40;;
52918;SDS011;38793;52.690;6.812;2023-08-17T07:55:22;2.95;;;0.50;;
52918;SDS011;38793;52.690;6.812;2023-08-17T07:57:48;4.03;;;1.00;;
52918;SDS011;38793;52.690;6.812;2023-08-17T08:00:14;7.22;;;1.52;;
52918;SDS011;38793;52.690;6.812;2023-08-17T08:05:05;7.82;;;0.70;;
52918;SDS011;38793;52.690;6.812;2023-08-17T08:07:31;11.48;;;1.73;;
52918;SDS011;38793;52.690;6.812;2023-08-17T08:09:57;4.32;;;0.88;;
52918;SDS011;38793;52.690;6.812;2023-08-17T08:12:23;3.38;;;0.60;;
52918;SDS011;38793;52.690;6.812;2023-08-17T08:14:48;2.03;;;0.75;;
52918;SDS011;38793;52.690;6.812;2023-08-17T08:17:16;10.38;;;1.08;;
52918;SDS011;38793;52.690;6.812;2023-08-17T08:19:41;2.50;;;0.60;;
52918;SDS011;38793;52.690;6.812;2023-08-17T08:22:07;3.22;;;0.80;;
52918;SDS011;38793;52.690;6.812;2023-08-17T08:24:32;7.90;;;0.80;;
52918;SDS011;38793;52.690;6.812;2023-08-17T08:27:00;4.30;;;0.65;;
52918;SDS011;38793;52.690;6.812;2023-08-17T08:29:26;2.80;;;0.73;;
52918;SDS011;38793;52.690;6.812;2023-08-17T08:31:52;3.58;;;0.70;;
52918;SDS011;38793;52.690;6.812;2023-08-17T08:36:44;3.63;;;0.77;;
52918;SDS011;38793;52.690;6.812;2023-08-17T08:39:09;4.03;;;0.93;;
52918;SDS011;38793;52.690;6.812;2023-08-17T08:41:37;5.45;;;0.75;;
52918;SDS011;38793;52.690;6.812;2023-08-17T08:44:03;7.40;;;0.77;;
52918;SDS011;38793;52.690;6.812;2023-08-17T08:46:30;2.70;;;0.55;;
52918;SDS011;38793;52.690;6.812;2023-08-17T08:48:57;5.05;;;0.80;;
52918;SDS011;38793;52.690;6.812;2023-08-17T08:51:25;2.40;;;0.68;;
52918;SDS011;38793;52.690;6.812;2023-08-17T08:54:02;2.97;;;1.15;;
52918;SDS011;38793;52.690;6.812;2023-08-17T08:56:29;2.20;;;0.80;;
52918;SDS011;38793;52.690;6.812;2023-08-17T08:58:57;3.67;;;0.80;;
52918;SDS011;38793;52.690;6.812;2023-08-17T09:01:26;2.88;;;0.52;;
52918;SDS011;38793;52.690;6.812;2023-08-17T09:03:53;2.30;;;0.90;;
52918;SDS011;38793;52.690;6.812;2023-08-17T09:06:21;4.15;;;0.85;;
52918;SDS011;38793;52.690;6.812;2023-08-17T09:08:48;4.95;;;0.80;;
52918;SDS011;38793;52.690;6.812;2023-08-17T09:13:39;2.63;;;0.90;;
52918;SDS011;38793;52.690;6.812;2023-08-17T09:16:05;5.00;;;0.70;;
52918;SDS011;38793;52.690;6.812;2023-08-17T09:18:31;1.83;;;1.05;;
52918;SDS011;38793;52.690;6.812;2023-08-17T09:20:56;3.95;;;1.05;;
52918;SDS011;38793;52.690;6.812;2023-08-17T09:23:22;1.98;;;0.73;;
52918;SDS011;38793;52.690;6.812;2023-08-17T09:25:48;1.08;;;0.52;;
52918;SDS011;38793;52.690;6.812;2023-08-17T09:28:17;4.13;;;0.95;;
52918;SDS011;38793;52.690;6.812;2023-08-17T09:30:53;4.00;;;1.00;;
52918;SDS011;38793;52.690;6.812;2023-08-17T09:33:29;4.68;;;1.20;;
52918;SDS011;38793;52.690;6.812;2023-08-17T09:35:56;4.53;;;1.08;;
52918;SDS011;38793;52.690;6.812;2023-08-17T09:38:23;5.15;;;0.95;;
52918;SDS011;38793;52.690;6.812;2023-08-17T09:43:15;2.85;;;0.80;;
52918;SDS011;38793;52.690;6.812;2023-08-17T09:45:42;4.30;;;0.80;;
52918;SDS011;38793;52.690;6.812;2023-08-17T09:48:16;3.50;;;0.75;;
52918;SDS011;38793;52.690;6.812;2023-08-17T09:50:42;1.83;;;0.80;;
52918;SDS011;38793;52.690;6.812;2023-08-17T09:53:13;3.80;;;0.75;;
52918;SDS011;38793;52.690;6.812;2023-08-17T09:55:40;4.60;;;1.05;;
52918;SDS011;38793;52.690;6.812;2023-08-17T09:58:07;2.95;;;0.77;;
52918;SDS011;38793;52.690;6.812;2023-08-17T10:00:33;2.88;;;0.93;;
52918;SDS011;38793;52.690;6.812;2023-08-17T10:07:54;3.35;;;1.10;;
52918;SDS011;38793;52.690;6.812;2023-08-17T10:10:26;4.85;;;1.13;;
52918;SDS011;38793;52.690;6.812;2023-08-17T10:13:09;2.55;;;1.25;;
52918;SDS011;38793;52.690;6.812;2023-08-17T10:21:01;2.50;;;1.57;;
52918;SDS011;38793;52.690;6.812;2023-08-17T10:23:30;3.38;;;1.25;;
52918;SDS011;38793;52.690;6.812;2023-08-17T10:25:56;6.40;;;1.35;;
52918;SDS011;38793;52.690;6.812;2023-08-17T10:28:22;4.30;;;1.52;;
52918;SDS011;38793;52.690;6.812;2023-08-17T10:30:49;2.58;;;1.20;;
52918;SDS011;38793;52.690;6.812;2023-08-17T10:33:16;5.30;;;1.33;;
52918;SDS011;38793;52.690;6.812;2023-08-17T10:35:42;3.13;;;1.13;;
52918;SDS011;38793;52.690;6.812;2023-08-17T10:38:09;2.63;;;1.65;;
52918;SDS011;38793;52.690;6.812;2023-08-17T10:40:36;3.13;;;1.50;;
52918;SDS011;38793;52.690;6.812;2023-08-17T10:43:03;4.90;;;1.30;;
52918;SDS011;38793;52.690;6.812;2023-08-17T10:45:30;2.58;;;1.60;;
52918;SDS011;38793;52.690;6.812;2023-08-17T10:50:33;4.05;;;1.55;;
52918;SDS011;38793;52.690;6.812;2023-08-17T10:53:03;5.05;;;1.40;;
52918;SDS011;38793;52.690;6.812;2023-08-17T10:58:02;5.65;;;1.30;;
52918;SDS011;38793;52.690;6.812;2023-08-17T11:00:33;24.42;;;2.83;;
52918;SDS011;38793;52.690;6.812;2023-08-17T11:03:04;5.43;;;1.77;;
52918;SDS011;38793;52.690;6.812;2023-08-17T11:05:41;6.32;;;2.05;;
52918;SDS011;38793;52.690;6.812;2023-08-17T11:08:07;27.02;;;3.17;;
52918;SDS011;38793;52.690;6.812;2023-08-17T11:10:39;3.67;;;2.42;;
52918;SDS011;38793;52.690;6.812;2023-08-17T11:15:39;3.08;;;1.42;;
52918;SDS011;38793;52.690;6.812;2023-08-17T11:18:07;8.32;;;1.48;;
52918;SDS011;38793;52.690;6.812;2023-08-17T11:20:34;3.78;;;1.98;;
52918;SDS011;38793;52.690;6.812;2023-08-17T11:23:01;4.63;;;2.38;;
52918;SDS011;38793;52.690;6.812;2023-08-17T11:25:27;10.82;;;2.47;;
52918;SDS011;38793;52.690;6.812;2023-08-17T11:30:21;4.55;;;1.73;;
52918;SDS011;38793;52.690;6.812;2023-08-17T11:32:48;3.90;;;1.77;;
52918;SDS011;38793;52.690;6.812;2023-08-17T11:35:16;6.22;;;2.03;;
52918;SDS011;38793;52.690;6.812;2023-08-17T11:37:41;7.80;;;2.08;;
52918;SDS011;38793;52.690;6.812;2023-08-17T11:40:08;6.57;;;1.73;;
52918;SDS011;38793;52.690;6.812;2023-08-17T11:42:41;7.47;;;1.88;;
52918;SDS011;38793;52.690;6.812;2023-08-17T11:45:07;6.78;;;2.30;;
52918;SDS011;38793;52.690;6.812;2023-08-17T11:47:39;3.88;;;1.77;;
52918;SDS011;38793;52.690;6.812;2023-08-17T11:50:11;7.55;;;1.58;;
52918;SDS011;38793;52.690;6.812;2023-08-17T11:52:38;9.10;;;2.35;;
52918;SDS011;38793;52.690;6.812;2023-08-17T11:55:04;8.18;;;1.80;;
52918;SDS011;38793;52.690;6.812;2023-08-17T11:57:31;6.13;;;2.25;;
52918;SDS011;38793;52.690;6.812;2023-08-17T12:02:23;3.85;;;1.98;;
52918;SDS011;38793;52.690;6.812;2023-08-17T12:07:15;11.37;;;2.57;;
52918;SDS011;38793;52.690;6.812;2023-08-17T12:09:42;4.55;;;2.08;;
52918;SDS011;38793;52.690;6.812;2023-08-17T12:12:09;6.65;;;2.17;;
52918;SDS011;38793;52.690;6.812;2023-08-17T12:14:35;5.40;;;1.95;;
52918;SDS011;38793;52.690;6.812;2023-08-17T12:17:01;5.22;;;2.20;;
52918;SDS011;38793;52.690;6.812;2023-08-17T12:19:27;6.15;;;2.67;;
52918;SDS011;38793;52.690;6.812;2023-08-17T12:21:54;6.80;;;2.10;;
52918;SDS011;38793;52.690;6.812;2023-08-17T12:24:19;13.05;;;2.08;;
52918;SDS011;38793;52.690;6.812;2023-08-17T12:26:48;8.73;;;2.30;;
52918;SDS011;38793;52.690;6.812;2023-08-17T12:29:14;6.43;;;2.40;;
52918;SDS011;38793;52.690;6.812;2023-08-17T12:34:05;23.00;;;3.72;;
52918;SDS011;38793;52.690;6.812;2023-08-17T12:38:57;5.28;;;2.47;;
52918;SDS011;38793;52.690;6.812;2023-08-17T12:43:48;5.85;;;2.92;;
52918;SDS011;38793;52.690;6.812;2023-08-17T12:48:39;4.03;;;2.10;;
52918;SDS011;38793;52.690;6.812;2023-08-17T12:53:30;4.00;;;2.50;;
52918;SDS011;38793;52.690;6.812;2023-08-17T12:58:21;6.50;;;2.67;;
52918;SDS011;38793;52.690;6.812;2023-08-17T13:03:15;5.68;;;2.22;;
52918;SDS011;38793;52.690;6.812;2023-08-17T13:05:42;4.50;;;2.50;;
52918;SDS011;38793;52.690;6.812;2023-08-17T13:10:34;6.38;;;2.88;;
52918;SDS011;38793;52.690;6.812;2023-08-17T13:15:25;5.68;;;2.80;;
52918;SDS011;38793;52.690;6.812;2023-08-17T13:20:16;7.55;;;3.40;;
52918;SDS011;38793;52.690;6.812;2023-08-17T13:25:07;3.40;;;3.08;;
52918;SDS011;38793;52.690;6.812;2023-08-17T13:29:59;3.47;;;3.17;;
52918;SDS011;38793;52.690;6.812;2023-08-17T13:32:26;8.68;;;3.72;;
52918;SDS011;38793;52.690;6.812;2023-08-17T13:34:52;4.43;;;3.22;;
52918;SDS011;38793;52.690;6.812;2023-08-17T13:39:44;4.93;;;3.42;;
52918;SDS011;38793;52.690;6.812;2023-08-17T13:44:35;16.98;;;4.15;;
52918;SDS011;38793;52.690;6.812;2023-08-17T13:49:26;6.47;;;2.90;;
52918;SDS011;38793;52.690;6.812;2023-08-17T13:51:53;5.07;;;3.00;;
52918;SDS011;38793;52.690;6.812;2023-08-17T13:54:19;9.18;;;4.00;;
52918;SDS011;38793;52.690;6.812;2023-08-17T13:59:10;4.28;;;3.13;;
52918;SDS011;38793;52.690;6.812;2023-08-17T14:04:01;4.72;;;3.03;;
52918;SDS011;38793;52.690;6.812;2023-08-17T14:06:28;3.65;;;3.15;;
52918;SDS011;38793;52.690;6.812;2023-08-17T14:11:20;22.92;;;4.03;;
52918;SDS011;38793;52.690;6.812;2023-08-17T14:16:11;5.53;;;3.80;;
52918;SDS011;38793;52.690;6.812;2023-08-17T14:21:02;6.50;;;3.38;;
52918;SDS011;38793;52.690;6.812;2023-08-17T14:25:53;3.08;;;2.08;;
52918;SDS011;38793;52.690;6.812;2023-08-17T14:30:44;8.73;;;1.88;;
52918;SDS011;38793;52.690;6.812;2023-08-17T14:35:40;12.98;;;2.40;;
52918;SDS011;38793;52.690;6.812;2023-08-17T14:40:34;5.13;;;3.67;;
52918;SDS011;38793;52.690;6.812;2023-08-17T14:43:00;3.85;;;2.33;;
52918;SDS011;38793;52.690;6.812;2023-08-17T14:47:51;3.45;;;2.60;;
52918;SDS011;38793;52.690;6.812;2023-08-17T14:52:42;4.05;;;2.85;;
52918;SDS011;38793;52.690;6.812;2023-08-17T14:57:34;8.50;;;2.88;;
52918;SDS011;38793;52.690;6.812;2023-08-17T15:02:25;11.13;;;3.45;;
52918;SDS011;38793;52.690;6.812;2023-08-17T15:07:16;5.47;;;3.08;;
52918;SDS011;38793;52.690;6.812;2023-08-17T15:12:07;3.67;;;2.83;;
52918;SDS011;38793;52.690;6.812;2023-08-17T15:16:58;7.47;;;3.20;;
52918;SDS011;38793;52.690;6.812;2023-08-17T15:19:24;4.47;;;3.10;;
52918;SDS011;38793;52.690;6.812;2023-08-17T15:21:51;3.35;;;2.80;;
52918;SDS011;38793;52.690;6.812;2023-08-17T15:26:42;6.80;;;3.30;;
52918;SDS011;38793;52.690;6.812;2023-08-17T15:31:33;4.57;;;2.15;;
52918;SDS011;38793;52.690;6.812;2023-08-17T15:36:24;3.63;;;1.92;;
52918;SDS011;38793;52.690;6.812;2023-08-17T15:38:51;4.13;;;2.58;;
52918;SDS011;38793;52.690;6.812;2023-08-17T15:41:17;4.60;;;2.25;;
52918;SDS011;38793;52.690;6.812;2023-08-17T15:46:09;5.95;;;3.28;;
52918;SDS011;38793;52.690;6.812;2023-08-17T15:48:35;4.32;;;2.42;;
52918;SDS011;38793;52.690;6.812;2023-08-17T15:51:01;5.55;;;2.50;;
52918;SDS011;38793;52.690;6.812;2023-08-17T15:55:52;3.55;;;2.58;;
52918;SDS011;38793;52.690;6.812;2023-08-17T15:58:18;5.55;;;2.80;;
52918;SDS011;38793;52.690;6.812;2023-08-17T16:03:09;6.22;;;2.45;;
52918;SDS011;38793;52.690;6.812;2023-08-17T16:08:00;4.63;;;2.30;;
52918;SDS011;38793;52.690;6.812;2023-08-17T16:12:51;5.13;;;2.80;;
52918;SDS011;38793;52.690;6.812;2023-08-17T16:17:42;4.30;;;2.63;;
52918;SDS011;38793;52.690;6.812;2023-08-17T16:22:34;3.20;;;2.20;;
52918;SDS011;38793;52.690;6.812;2023-08-17T16:27:25;5.93;;;1.88;;
52918;SDS011;38793;52.690;6.812;2023-08-17T16:32:16;2.80;;;2.30;;
52918;SDS011;38793;52.690;6.812;2023-08-17T16:37:07;3.63;;;1.60;;
52918;SDS011;38793;52.690;6.812;2023-08-17T16:39:33;2.08;;;1.85;;
52918;SDS011;38793;52.690;6.812;2023-08-17T16:41:59;2.95;;;1.52;;
52918;SDS011;38793;52.690;6.812;2023-08-17T16:44:24;3.33;;;2.13;;
52918;SDS011;38793;52.690;6.812;2023-08-17T16:46:50;2.92;;;1.80;;
52918;SDS011;38793;52.690;6.812;2023-08-17T16:51:42;2.47;;;1.13;;
52918;SDS011;38793;52.690;6.812;2023-08-17T16:54:08;2.55;;;1.50;;
52918;SDS011;38793;52.690;6.812;2023-08-17T16:58:59;1.02;;;0.80;;
52918;SDS011;38793;52.690;6.812;2023-08-17T17:03:50;1.70;;;1.50;;
52918;SDS011;38793;52.690;6.812;2023-08-17T17:08:41;3.08;;;1.65;;
52918;SDS011;38793;52.690;6.812;2023-08-17T17:13:35;1.30;;;1.20;;
52918;SDS011;38793;52.690;6.812;2023-08-17T17:16:01;2.20;;;1.60;;
52918;SDS011;38793;52.690;6.812;2023-08-17T17:18:27;3.30;;;1.20;;
52918;SDS011;38793;52.690;6.812;2023-08-17T17:23:18;1.20;;;1.10;;
52918;SDS011;38793;52.690;6.812;2023-08-17T17:28:09;2.63;;;1.60;;
52918;SDS011;38793;52.690;6.812;2023-08-17T17:33:00;2.53;;;1.70;;
52918;SDS011;38793;52.690;6.812;2023-08-17T17:37:51;2.35;;;1.65;;